SBPK/PET METAR and TAF weather

Enter ICAO airport designator
Station Type Date Time Source
SBPK METAR 2019/08/22 20:00 UTC NOAA

SBPK 222000Z 17006KT 9999 SCT030 16/11 Q1026


Station Type Date Time Source
SBPK Decoded METAR 2019/08/22 20:00 UTC NOAA

Station name not available
Aug 22, 2019 - 04:00 PM EDT / 2019.08.22 2000 UTC
Wind: from the S (170 degrees) at 7 MPH (6 KT):0
Visibility: greater than 7 mile(s):0
Sky conditions: partly cloudy
Temperature: 60 F (16 C)
Dew Point: 51 F (11 C)
Relative Humidity: 72%
Pressure (altimeter): 30.30 in. Hg (1026 hPa)
ob: SBPK 222000Z 17006KT 9999 SCT030 16/11 Q1026
cycle: 20

Station Type Date Time Source
SBPK TAF 2019/08/22 18:30 UTC NOAA

TAF SBPK 221515Z 2218/2318 24006KT 9999 BKN005 TN07/2309Z TX17/2317Z
BECMG 2302/2304 5000 BR BKN008 PROB40 2308/2312 0600 FG VV001
RMK PDV

Example: see airport list